Time;durP1;ratioP1;P1;durP2;ratioP2;P2;SDS_P1;SDS_P2;PMS_P1;PMS_P2;Temp;Humidity;BMP_temperature;BMP_pressure;BME280_temperature;BME280_humidity;BME280_pressure;Samples;Min_cycle;Max_cycle;Signal;HPM_P1;HPM_P2
2024/04/15 00:00:43;;;;;;;1.17;0.80;;;;;;;21.63;45.44;100818.44;2277863;77;50270;-78
2024/04/15 00:03:45;;;;;;;1.17;0.70;;;;;;;21.61;45.50;100813.27;2277846;77;50918;-77
2024/04/15 00:06:47;;;;;;;1.00;0.60;;;;;;;21.62;45.52;100810.89;2285203;77;50265;-77
2024/04/15 00:09:49;;;;;;;1.57;0.80;;;;;;;21.63;45.46;100799.59;2285488;77;50673;-77
2024/04/15 00:12:52;;;;;;;1.85;0.90;;;;;;;21.62;45.38;100795.25;2252424;77;49571;-77
2024/04/15 00:15:55;;;;;;;2.95;1.02;;;;;;;21.60;45.43;100794.61;2277960;77;50280;-77
2024/04/15 00:18:57;;;;;;;1.57;0.80;;;;;;;21.61;45.49;100785.52;2271608;78;50632;-77
2024/04/15 00:21:59;;;;;;;1.02;0.70;;;;;;;21.60;45.47;100800.00;2273232;77;51059;-76
2024/04/15 00:25:02;;;;;;;1.32;0.70;;;;;;;21.60;45.44;100782.50;2247995;78;51603;-77
2024/04/15 00:28:04;;;;;;;2.20;0.68;;;;;;;21.60;45.36;100777.11;2271423;78;51670;-77
2024/04/15 00:31:06;;;;;;;1.30;0.68;;;;;;;21.59;45.42;100778.98;2247953;78;51950;-76
2024/04/15 00:34:08;;;;;;;3.67;1.07;;;;;;;21.59;45.43;100768.20;2271401;78;51444;-76
2024/04/15 00:37:11;;;;;;;1.90;0.88;;;;;;;21.59;45.44;100768.73;2247655;78;50532;-77
2024/04/15 00:40:13;;;;;;;2.05;0.90;;;;;;;21.59;45.45;100771.42;2271438;78;50163;-76
2024/04/15 00:43:15;;;;;;;1.70;1.00;;;;;;;21.58;45.45;100773.78;2271226;78;50441;-77
2024/04/15 00:46:17;;;;;;;1.67;0.90;;;;;;;21.59;45.42;100780.84;2247763;78;50842;-78
2024/04/15 00:49:20;;;;;;;1.90;0.80;;;;;;;21.58;45.36;100776.47;2248280;78;50232;-77
2024/04/15 00:52:22;;;;;;;1.35;0.90;;;;;;;21.59;45.37;100787.58;2271585;78;50447;-76
2024/04/15 00:55:24;;;;;;;1.80;0.85;;;;;;;21.59;45.39;100786.23;2271272;78;50258;-77
2024/04/15 00:58:26;;;;;;;1.90;0.95;;;;;;;21.58;45.41;100780.52;2271448;78;50707;-77
2024/04/15 01:01:28;;;;;;;2.02;0.85;;;;;;;21.58;45.39;100784.55;2248060;78;51076;-78
2024/04/15 01:04:30;;;;;;;1.85;0.98;;;;;;;21.58;45.32;100768.39;2271711;78;51370;-77
2024/04/15 01:07:35;;;;;;;3.00;0.80;;;;;;;21.57;45.40;100770.27;2248341;78;52534;-77
2024/04/15 01:10:37;;;;;;;2.58;0.90;;;;;;;21.58;45.37;100763.01;2273244;77;51772;-77
2024/04/15 01:13:39;;;;;;;2.35;0.90;;;;;;;21.58;45.33;100763.01;2271602;78;51571;-77
2024/04/15 01:16:41;;;;;;;4.15;0.98;;;;;;;21.58;45.32;100758.97;2284972;76;50683;-78
2024/04/15 01:19:44;;;;;;;2.70;0.95;;;;;;;21.56;45.34;100749.77;2294468;76;50787;-78
2024/04/15 01:22:58;;;;;;;2.83;0.72;;;;;;;21.56;45.39;100739.52;2263706;77;51604;-77
2024/04/15 01:26:01;;;;;;;1.42;0.90;;;;;;;21.57;45.38;100745.20;2251270;77;49449;-78
2024/04/15 01:29:03;;;;;;;1.12;0.75;;;;;;;21.57;45.37;100738.47;2264021;77;51574;-78
2024/04/15 01:32:06;;;;;;;2.35;1.05;;;;;;;21.57;45.29;100743.34;2239330;77;51522;-78
2024/04/15 01:35:08;;;;;;;1.80;0.90;;;;;;;21.57;45.37;100741.16;2263648;77;52388;-78
2024/04/15 01:38:11;;;;;;;1.82;0.82;;;;;;;21.57;45.38;100731.74;2264256;77;51522;-78
2024/04/15 01:41:13;;;;;;;1.62;0.98;;;;;;;21.56;45.33;100732.27;2294862;77;51508;-77
2024/04/15 01:44:15;;;;;;;1.37;0.70;;;;;;;21.56;45.38;100726.05;2263749;77;51546;-78
2024/04/15 01:47:17;;;;;;;2.72;1.00;;;;;;;21.56;45.28;100715.28;2293898;77;50417;-76
2024/04/15 01:50:23;;;;;;;1.00;0.62;;;;;;;21.55;45.37;100707.70;2288388;77;51539;-77
2024/04/15 01:53:23;;;;;;;2.00;0.70;;;;;;;21.55;45.37;100718.98;2293625;77;22397;-77
2024/04/15 01:56:25;;;;;;;1.67;0.90;;;;;;;21.55;45.42;100720.34;2294076;77;51551;-76
2024/04/15 01:59:28;;;;;;;1.60;0.80;;;;;;;21.56;45.35;100719.33;2294160;77;50690;-77
2024/04/15 02:02:30;;;;;;;1.50;0.90;;;;;;;21.55;45.22;100713.61;2294211;77;51482;-77
2024/04/15 02:05:32;;;;;;;1.90;0.90;;;;;;;21.55;45.31;100704.18;2263305;77;50377;-77
2024/04/15 02:08:34;;;;;;;1.70;0.80;;;;;;;21.53;45.30;100702.53;2263364;77;50478;-78
2024/04/15 02:11:36;;;;;;;4.42;1.02;;;;;;;21.54;45.25;100695.28;2294144;77;50301;-77
2024/04/15 02:14:39;;;;;;;2.17;0.80;;;;;;;21.55;45.24;100681.30;2263287;77;49559;-78
2024/04/15 02:17:41;;;;;;;1.35;0.90;;;;;;;21.53;45.30;100672.91;2276859;76;50242;-77
2024/04/15 02:20:43;;;;;;;4.37;0.98;;;;;;;21.54;45.35;100672.39;2271621;78;50413;-78
2024/04/15 02:23:45;;;;;;;1.82;0.80;;;;;;;21.53;45.20;100664.84;2224101;78;49937;-78
2024/04/15 02:26:47;;;;;;;2.12;0.80;;;;;;;21.53;45.22;100663.50;2271405;78;50765;-78
2024/04/15 02:29:50;;;;;;;3.75;1.00;;;;;;;21.53;45.25;100658.63;2271662;78;51511;-77
2024/04/15 02:32:52;;;;;;;3.33;1.07;;;;;;;21.52;45.20;100665.85;2273446;77;50058;-77
2024/04/15 02:35:54;;;;;;;2.20;0.80;;;;;;;21.53;45.29;100670.23;2273132;77;51276;-77
2024/04/15 02:38:56;;;;;;;2.42;0.70;;;;;;;21.53;45.24;100666.19;2248228;78;51517;-77
2024/04/15 02:41:58;;;;;;;1.40;0.90;;;;;;;21.53;45.29;100663.50;2273119;78;52480;-77
2024/04/15 02:45:01;;;;;;;2.87;1.17;;;;;;;21.53;45.31;100667.53;2247931;78;50324;-78
2024/04/15 02:48:03;;;;;;;1.12;0.75;;;;;;;21.52;45.30;100655.09;2248191;78;50025;-78
2024/04/15 02:51:06;;;;;;;2.10;0.80;;;;;;;21.52;45.23;100655.61;2273357;77;51596;-78
2024/04/15 02:54:08;;;;;;;1.82;0.80;;;;;;;21.52;45.22;100644.31;2271703;78;50342;-78
2024/04/15 02:57:10;;;;;;;1.85;1.00;;;;;;;21.52;45.25;100646.19;2247805;78;49569;-78
2024/04/15 03:00:13;;;;;;;1.50;0.90;;;;;;;21.51;45.31;100653.44;2247937;78;50397;-78
2024/04/15 03:03:15;;;;;;;2.37;0.90;;;;;;;21.50;45.17;100646.41;2223847;78;52539;-78
2024/04/15 03:06:20;;;;;;;1.80;0.90;;;;;;;21.51;45.11;100633.77;2247627;78;51397;-78
2024/04/15 03:09:25;;;;;;;2.20;0.98;;;;;;;21.51;45.13;100625.69;2271425;78;50415;-78
2024/04/15 03:12:27;;;;;;;2.33;1.00;;;;;;;21.50;45.19;100626.22;2271681;78;50111;-78
2024/04/15 03:15:34;;;;;;;2.52;0.80;;;;;;;21.50;45.18;100620.83;2271220;78;50280;-77
2024/04/15 03:18:33;;;;;;;2.15;0.80;;;;;;;21.50;45.15;100619.97;2290595;77;22376;-78
2024/04/15 03:21:35;;;;;;;1.60;0.60;;;;;;;21.50;45.15;100622.17;2263333;77;51529;-78
2024/04/15 03:24:38;;;;;;;2.45;0.80;;;;;;;21.49;45.23;100617.80;2288356;77;51508;-77
2024/04/15 03:27:40;;;;;;;1.10;0.70;;;;;;;21.49;45.07;100610.25;2293967;77;51501;-77
2024/04/15 03:30:42;;;;;;;1.90;0.90;;;;;;;21.50;45.15;100611.41;2288339;77;49560;-78
2024/04/15 03:33:44;;;;;;;3.58;0.80;;;;;;;21.50;45.08;100603.33;2294222;77;50444;-78
2024/04/15 03:36:46;;;;;;;2.42;0.80;;;;;;;21.49;45.05;100598.96;2294072;77;50684;-78
2024/04/15 03:39:49;;;;;;;2.95;0.70;;;;;;;21.48;45.06;100585.20;2294185;77;50777;-77
2024/04/15 03:42:51;;;;;;;2.98;1.00;;;;;;;21.48;45.09;100580.34;2294387;77;50336;-79
2024/04/15 03:45:53;;;;;;;1.98;0.90;;;;;;;21.49;45.11;100596.80;2263172;77;50072;-79
2024/04/15 03:48:56;;;;;;;1.75;0.80;;;;;;;21.47;45.25;100579.48;2294422;77;51493;-79
2024/04/15 03:51:59;;;;;;;1.77;0.80;;;;;;;21.48;45.00;100578.99;2294517;76;50698;-79
2024/04/15 03:55:01;;;;;;;1.65;0.80;;;;;;;21.49;45.08;100573.91;2263046;77;49595;-78
2024/04/15 03:58:03;;;;;;;1.85;0.70;;;;;;;21.47;45.08;100558.47;2294348;77;51487;-78
2024/04/15 04:01:05;;;;;;;1.85;0.93;;;;;;;21.47;45.07;100547.18;2239120;77;50620;-78
2024/04/15 04:04:08;;;;;;;1.87;0.45;;;;;;;21.45;45.02;100530.43;2294362;77;51488;-78
2024/04/15 04:07:10;;;;;;;1.77;0.70;;;;;;;21.46;45.04;100519.96;2294221;77;51529;-78
2024/04/15 04:10:14;;;;;;;2.17;0.75;;;;;;;21.46;45.09;100516.45;2288597;77;50053;-78
2024/04/15 04:13:16;;;;;;;3.12;1.00;;;;;;;21.46;45.08;100515.92;2294343;77;50659;-77
2024/04/15 04:16:18;;;;;;;1.92;1.00;;;;;;;21.46;45.04;100520.48;2294005;77;51515;-78
2024/04/15 04:19:25;;;;;;;3.58;0.70;;;;;;;21.45;45.11;100511.59;2270811;77;50060;-77
2024/04/15 04:22:27;;;;;;;2.50;0.80;;;;;;;21.46;45.00;100510.54;2302086;77;51491;-77
2024/04/15 04:25:29;;;;;;;1.87;0.93;;;;;;;21.45;45.11;100514.27;2301989;76;51543;-77
2024/04/15 04:28:32;;;;;;;1.72;0.80;;;;;;;21.46;45.08;100508.37;2302160;77;51613;-77
2024/04/15 04:31:34;;;;;;;1.37;0.80;;;;;;;21.45;45.03;100501.31;2302178;77;50687;-77
2024/04/15 04:34:36;;;;;;;3.58;1.17;;;;;;;21.45;45.06;100495.44;2270865;77;51224;-78
2024/04/15 04:37:38;;;;;;;1.85;1.00;;;;;;;21.45;45.08;100492.74;2301930;77;50778;-78
2024/04/15 04:40:40;;;;;;;2.30;0.98;;;;;;;21.44;45.07;100491.06;2271138;77;51439;-78
2024/04/15 04:43:43;;;;;;;2.27;0.88;;;;;;;21.44;45.07;100499.14;2270813;77;50052;-77
2024/04/15 04:46:45;;;;;;;2.37;0.90;;;;;;;21.43;45.09;100512.30;2301953;77;50745;-77
2024/04/15 04:49:53;;;;;;;2.42;0.80;;;;;;;21.44;45.06;100528.75;2302221;77;50271;-78
2024/04/15 04:52:56;;;;;;;1.50;0.80;;;;;;;21.45;45.06;100548.42;2271329;77;50807;-77
2024/04/15 04:56:14;;;;;;;1.82;0.70;;;;;;;21.45;45.04;100554.66;2301904;76;50268;-77
2024/04/15 04:59:16;;;;;;;2.10;0.82;;;;;;;21.45;45.04;100549.77;2296494;76;51147;-76
2024/04/15 05:02:19;;;;;;;1.47;0.82;;;;;;;21.46;45.02;100550.09;2301933;77;51448;-76
2024/04/15 05:05:21;;;;;;;3.67;0.80;;;;;;;21.45;45.14;100546.58;2301837;76;50403;-77
2024/04/15 05:08:23;;;;;;;1.87;0.80;;;;;;;21.46;45.08;100551.44;2271171;77;51152;-78
2024/04/15 05:11:25;;;;;;;2.45;0.90;;;;;;;21.45;45.00;100549.27;2302225;77;50271;-77
2024/04/15 05:14:27;;;;;;;1.47;0.65;;;;;;;21.45;45.00;100553.80;2301969;77;51592;-78
2024/04/15 05:17:30;;;;;;;1.80;0.85;;;;;;;21.44;45.05;100561.05;2300330;76;51551;-78
2024/04/15 05:20:35;;;;;;;2.50;0.93;;;;;;;21.44;45.04;100555.67;2238919;77;51534;-78
2024/04/15 05:23:37;;;;;;;;;;;;;;;21.44;45.01;100558.36;2291063;77;51005;-78
2024/04/15 05:26:39;;;;;;;2.55;0.80;;;;;;;21.44;45.15;100557.02;2294216;76;51561;-78
2024/04/15 05:29:41;;;;;;;1.40;0.90;;;;;;;21.43;45.05;100552.68;2294282;77;50403;-78
2024/04/15 05:32:43;;;;;;;3.83;0.75;;;;;;;21.45;44.97;100543.03;2288731;76;49619;-78
2024/04/15 05:35:45;;;;;;;2.17;1.00;;;;;;;21.44;45.05;100538.17;2294148;77;50752;-78
2024/04/15 05:38:48;;;;;;;1.62;0.62;;;;;;;21.45;45.14;100537.65;2294547;77;51329;-78
2024/04/15 05:41:50;;;;;;;2.37;0.98;;;;;;;21.44;45.15;100536.83;2237694;77;50983;-76
2024/04/15 05:44:52;;;;;;;1.90;0.93;;;;;;;21.44;45.04;100536.83;2294526;77;51628;-78
2024/04/15 05:47:54;;;;;;;2.25;0.90;;;;;;;21.45;45.05;100529.58;2294430;77;50666;-77
2024/04/15 05:50:56;;;;;;;1.35;0.78;;;;;;;21.45;45.01;100528.23;2294357;77;51287;-77
2024/04/15 05:53:59;;;;;;;2.37;1.00;;;;;;;21.45;45.06;100527.73;2294267;77;50313;-77
2024/04/15 05:57:06;;;;;;;1.95;1.02;;;;;;;21.45;45.01;100528.23;2288152;77;49639;-77
2024/04/15 06:00:05;;;;;;;2.37;1.00;;;;;;;21.45;45.08;100526.39;2293188;77;22362;-78
2024/04/15 06:03:07;;;;;;;3.75;0.90;;;;;;;21.45;45.19;100521.50;2294343;77;51572;-78
2024/04/15 06:06:10;;;;;;;4.50;0.90;;;;;;;21.45;45.07;100511.59;2288897;76;52643;-77
2024/04/15 06:09:12;;;;;;;1.98;0.90;;;;;;;21.45;45.15;100514.27;2294454;77;50484;-78
2024/04/15 06:12:14;;;;;;;0.95;0.68;;;;;;;21.44;45.13;100507.22;2294519;77;50767;-77
2024/04/15 06:15:17;;;;;;;1.42;0.80;;;;;;;21.44;45.11;100504.52;2294307;77;50358;-77
2024/04/15 06:18:19;;;;;;;2.10;0.88;;;;;;;21.45;45.15;100497.27;2294468;76;51516;-77
2024/04/15 06:21:21;;;;;;;1.82;0.80;;;;;;;21.44;45.04;100492.41;2288840;76;49569;-77
2024/04/15 06:24:23;;;;;;;2.45;1.02;;;;;;;21.44;45.11;100495.10;2288773;77;50327;-78
2024/04/15 06:27:25;;;;;;;1.37;0.93;;;;;;;21.44;45.07;100493.76;2294149;77;50762;-79
2024/04/15 06:30:28;;;;;;;2.33;0.85;;;;;;;21.45;45.08;100485.16;2263239;77;50119;-78
2024/04/15 06:33:30;;;;;;;1.42;0.80;;;;;;;21.43;45.04;100489.42;2288741;77;50647;-78
2024/04/15 06:36:33;;;;;;;2.12;0.68;;;;;;;21.44;45.11;100482.99;2294276;77;51495;-78
2024/04/15 06:39:35;;;;;;;1.72;0.90;;;;;;;21.44;45.08;100477.61;2294453;77;50773;-78
2024/04/15 06:42:38;;;;;;;2.22;1.10;;;;;;;21.45;45.04;100480.63;2294429;77;51524;-78
2024/04/15 06:45:40;;;;;;;1.42;0.90;;;;;;;21.45;45.00;100483.32;2263282;77;52521;-78
2024/04/15 06:48:43;;;;;;;2.90;0.98;;;;;;;21.45;45.16;100480.63;2294469;77;50645;-78
2024/04/15 06:51:45;;;;;;;2.10;0.80;;;;;;;21.47;45.23;100479.05;2294456;77;50809;-78
2024/04/15 06:54:47;;;;;;;2.55;1.05;;;;;;;21.47;45.36;100469.63;2288731;76;49487;-78
2024/04/15 06:57:50;;;;;;;2.17;0.80;;;;;;;21.47;45.47;100468.29;2294245;77;50353;-78
2024/04/15 07:00:52;;;;;;;1.98;0.90;;;;;;;21.47;45.46;100458.87;2294397;76;50613;-78
2024/04/15 07:03:57;;;;;;;1.30;0.68;;;;;;;21.47;45.50;100458.34;2294513;77;51583;-78
2024/04/15 07:06:59;;;;;;;2.95;1.10;;;;;;;21.48;45.58;100455.98;2294442;77;50430;-78
2024/04/15 07:10:01;;;;;;;2.20;0.93;;;;;;;21.49;45.55;100444.17;2288806;77;49671;-78
2024/04/15 07:13:04;;;;;;;2.47;0.90;;;;;;;21.50;45.47;100440.95;2294464;77;50766;-78
2024/04/15 07:16:06;;;;;;;1.40;0.80;;;;;;;21.51;45.67;100441.28;2288516;77;51541;-78
2024/04/15 07:19:08;;;;;;;2.65;1.02;;;;;;;21.52;45.64;100434.84;2266315;77;50034;-78
2024/04/15 07:22:10;;;;;;;1.65;0.72;;;;;;;21.52;45.74;100426.25;2271285;77;51464;-78
2024/04/15 07:25:13;;;;;;;1.65;0.70;;;;;;;21.53;45.70;100425.75;2301979;77;50682;-78
2024/04/15 07:28:15;;;;;;;2.30;0.90;;;;;;;21.53;45.93;100421.72;2271370;77;51668;-78
2024/04/15 07:31:17;;;;;;;1.35;0.68;;;;;;;21.55;45.98;100424.18;2296971;76;53595;-78
2024/04/15 07:34:20;;;;;;;2.65;0.93;;;;;;;21.54;46.08;100422.02;2297130;76;52569;-78
2024/04/15 07:37:22;;;;;;;2.00;0.85;;;;;;;21.55;46.02;100406.68;2301980;76;51605;-78
2024/04/15 07:40:24;;;;;;;1.45;0.78;;;;;;;21.55;45.94;100409.38;2296648;76;53766;-78
2024/04/15 07:43:29;;;;;;;2.20;1.02;;;;;;;21.56;45.96;100404.31;2296762;76;50958;-78
2024/04/15 07:46:31;;;;;;;2.60;0.90;;;;;;;21.55;45.88;100391.34;2302097;77;51489;-78
2024/04/15 07:49:35;;;;;;;1.82;0.75;;;;;;;21.56;45.92;100394.89;2271225;77;51522;-79
2024/04/15 07:52:37;;;;;;;2.47;0.88;;;;;;;21.56;45.81;100383.60;2271591;77;50447;-78
2024/04/15 07:55:41;;;;;;;1.98;0.85;;;;;;;21.57;45.96;100385.24;2301893;76;50717;-78
2024/04/15 07:58:43;;;;;;;2.45;1.02;;;;;;;21.58;45.99;100377.98;2270852;77;51062;-78
2024/04/15 08:01:45;;;;;;;1.22;0.72;;;;;;;21.58;46.04;100373.45;2296447;77;50619;-78
2024/04/15 08:04:47;;;;;;;1.52;0.68;;;;;;;21.59;45.86;100375.63;2296792;76;50898;-78
2024/04/15 08:07:51;;;;;;;2.35;0.98;;;;;;;21.59;46.01;100371.59;2296385;76;51658;-78
2024/04/15 08:10:53;;;;;;;3.00;0.90;;;;;;;21.59;46.02;100376.97;2296962;77;22489;-77
2024/04/15 08:13:55;;;;;;;1.45;0.60;;;;;;;21.59;46.06;100370.23;2270978;77;50461;-77
2024/04/15 08:16:58;;;;;;;2.25;1.10;;;;;;;21.59;46.14;100364.86;2301931;76;50685;-77
2024/04/15 08:20:00;;;;;;;1.72;0.80;;;;;;;21.61;46.14;100372.20;2287489;77;51429;-78
2024/04/15 08:23:02;;;;;;;3.30;1.12;;;;;;;21.60;46.21;100374.58;2248842;78;50868;-78
2024/04/15 08:26:06;;;;;;;1.70;0.62;;;;;;;21.60;46.13;100373.23;2273822;77;51507;-78
2024/04/15 08:29:09;;;;;;;2.52;0.62;;;;;;;21.60;46.31;100367.31;2271949;78;50303;-78
2024/04/15 08:32:11;;;;;;;2.25;0.90;;;;;;;21.60;46.34;100361.93;2273815;77;50596;-78
2024/04/15 08:35:14;;;;;;;1.10;0.68;;;;;;;21.62;46.35;100361.73;2271914;78;52420;-78
2024/04/15 08:38:16;;;;;;;2.37;1.07;;;;;;;21.61;46.34;100351.48;2248420;78;50333;-78
2024/04/15 08:41:23;;;;;;;1.25;0.62;;;;;;;21.61;46.14;100346.63;2271728;78;51478;-77
2024/04/15 08:44:26;;;;;;;1.98;0.85;;;;;;;21.62;46.24;100345.58;2271911;78;50359;-78
2024/04/15 08:47:31;;;;;;;1.35;0.68;;;;;;;21.63;46.28;100342.69;2248392;77;49666;-78
2024/04/15 08:50:33;;;;;;;2.85;0.85;;;;;;;21.62;46.33;100338.85;2272208;78;50272;-78
2024/04/15 08:53:36;;;;;;;2.90;0.90;;;;;;;21.63;46.16;100340.00;2271845;78;50703;-78
2024/04/15 08:56:43;;;;;;;2.52;0.80;;;;;;;21.64;46.23;100336.78;2273488;77;50989;-79
2024/04/15 08:59:44;;;;;;;1.65;0.80;;;;;;;21.65;45.84;100324.95;2271549;78;22391;-78
2024/04/15 09:02:46;;;;;;;1.75;0.90;;;;;;;21.64;46.15;100324.66;2272156;78;51590;-77
2024/04/15 09:05:48;;;;;;;1.85;0.72;;;;;;;21.64;46.14;100312.55;2271965;78;51545;-78
2024/04/15 09:08:51;;;;;;;1.50;0.78;;;;;;;21.66;45.50;100309.13;2272072;78;50357;-78
2024/04/15 09:11:53;;;;;;;1.10;0.70;;;;;;;21.67;45.89;100310.77;2247106;78;49554;-77
2024/04/15 09:14:55;;;;;;;2.10;0.70;;;;;;;21.69;45.32;100311.39;2273998;77;50682;-77
2024/04/15 09:17:57;;;;;;;1.10;0.70;;;;;;;21.70;45.44;100298.23;2271735;78;51524;-77
2024/04/15 09:20:59;;;;;;;1.42;0.80;;;;;;;21.66;44.35;100292.98;2264061;77;50081;-77
2024/04/15 09:24:02;;;;;;;1.85;0.90;;;;;;;21.69;44.45;100285.29;2302257;77;51396;-78
2024/04/15 09:27:04;;;;;;;4.08;1.07;;;;;;;21.71;44.90;100284.56;2296608;77;50066;-77
2024/04/15 09:30:07;;;;;;;1.75;0.85;;;;;;;21.69;45.74;100279.91;2247094;77;51431;-78
2024/04/15 09:33:13;;;;;;;2.08;0.70;;;;;;;21.71;44.73;100271.63;2271863;77;51762;-78
2024/04/15 09:36:15;;;;;;;;;;;;;;;21.71;45.63;100265.71;2300049;76;50670;-78
2024/04/15 09:39:17;;;;;;;2.65;0.95;;;;;;;21.71;44.07;100251.42;2302984;77;51545;-78
2024/04/15 09:42:19;;;;;;;2.20;1.10;;;;;;;21.70;44.20;100255.95;2302964;77;51549;-77
2024/04/15 09:45:22;;;;;;;2.10;0.70;;;;;;;21.68;44.01;100247.30;2271547;77;51706;-78
2024/04/15 09:48:24;;;;;;;1.90;0.90;;;;;;;21.68;44.18;100247.30;2302572;77;50407;-78
2024/04/15 09:51:26;;;;;;;1.70;0.90;;;;;;;21.72;44.43;100238.25;2302113;77;50587;-77
2024/04/15 09:54:30;;;;;;;0.95;0.78;;;;;;;21.75;44.58;100221.66;2270994;77;49562;-77
2024/04/15 09:57:35;;;;;;;3.25;0.85;;;;;;;21.74;44.35;100222.19;2301972;77;51701;-77
2024/04/15 10:00:37;;;;;;;1.20;0.75;;;;;;;21.75;44.35;100213.06;2296280;76;50626;-77
2024/04/15 10:03:39;;;;;;;1.50;0.80;;;;;;;21.77;44.30;100206.66;2301379;77;51637;-77
2024/04/15 10:06:47;;;;;;;1.52;0.78;;;;;;;21.75;44.19;100201.47;2301622;77;51460;-77
2024/04/15 10:09:49;;;;;;;1.15;0.75;;;;;;;21.77;44.11;100198.58;2302093;77;22939;-76
2024/04/15 10:12:56;;;;;;;1.62;0.80;;;;;;;21.75;44.17;100204.16;2301808;77;51513;-77
2024/04/15 10:16:01;;;;;;;8.83;1.15;;;;;;;21.74;43.91;100187.70;2302183;76;50395;-76
2024/04/15 10:19:03;;;;;;;;;;;;;;;21.72;43.83;100189.26;2324759;76;50934;-78
2024/04/15 10:22:05;;;;;;;4.12;1.10;;;;;;;21.74;44.01;100182.32;2322705;75;50319;-76
2024/04/15 10:25:10;;;;;;;8.35;1.60;;;;;;;21.73;44.26;100175.27;2317715;76;51549;-76
2024/04/15 10:28:13;;;;;;;8.63;1.42;;;;;;;21.78;45.41;100161.98;2305895;76;50974;-77
2024/04/15 10:31:16;;;;;;;7.50;1.70;;;;;;;21.76;45.80;100151.97;2332272;76;51489;-77
2024/04/15 10:34:20;;;;;;;11.12;1.50;;;;;;;21.80;44.44;100151.00;2318091;76;50639;-77
2024/04/15 10:37:29;;;;;;;10.20;1.50;;;;;;;21.76;44.72;100157.36;2317738;76;50420;-78
2024/04/15 10:40:37;;;;;;;10.78;1.30;;;;;;;21.79;44.68;100158.27;2317727;76;50465;-78
2024/04/15 10:43:39;;;;;;;14.68;1.50;;;;;;;21.73;44.12;100151.03;2291583;76;51244;-76
2024/04/15 10:46:45;;;;;;;12.35;1.67;;;;;;;21.67;44.34;100145.17;2315503;76;50255;-77
2024/04/15 10:49:47;;;;;;;13.55;1.75;;;;;;;21.73;45.81;100138.91;2316138;76;51528;-77
2024/04/15 10:52:50;;;;;;;10.50;1.57;;;;;;;21.77;45.09;100135.28;2291830;76;49518;-78
2024/04/15 10:55:52;;;;;;;6.65;1.47;;;;;;;21.68;45.11;100133.35;2315997;76;51523;-78
2024/04/15 10:58:54;;;;;;;9.95;2.15;;;;;;;21.74;45.21;100131.16;2316425;76;49900;-78
2024/04/15 11:01:56;;;;;;;8.65;1.98;;;;;;;21.79;45.52;100121.91;2316258;76;50361;-77
2024/04/15 11:04:58;;;;;;;12.93;1.60;;;;;;;21.80;46.41;100113.30;2316122;76;50646;-79
2024/04/15 11:08:01;;;;;;;9.90;1.55;;;;;;;21.78;46.86;100108.13;2316250;76;51389;-78
2024/04/15 11:11:03;;;;;;;11.95;1.62;;;;;;;21.82;47.00;100113.39;2291680;76;49814;-78
2024/04/15 11:14:07;;;;;;;9.05;1.70;;;;;;;21.81;47.05;100102.33;2318026;76;53370;-79
2024/04/15 11:17:09;;;;;;;11.53;2.05;;;;;;;21.82;47.42;100106.66;2292059;76;54865;-78
2024/04/15 11:20:11;;;;;;;14.90;1.98;;;;;;;21.86;47.55;100103.84;2316268;76;50766;-78
2024/04/15 11:23:13;;;;;;;17.75;2.15;;;;;;;21.87;48.67;100092.02;2316278;76;51618;-78
2024/04/15 11:26:16;;;;;;;15.25;1.92;;;;;;;21.95;48.20;100090.92;2266470;76;52947;-76
2024/04/15 11:29:18;;;;;;;11.93;2.05;;;;;;;21.98;47.89;100089.66;2316393;76;52565;-79
2024/04/15 11:32:20;;;;;;;15.68;2.12;;;;;;;22.00;47.89;100076.80;2305578;76;51619;-78
2024/04/15 11:35:22;;;;;;;17.55;1.95;;;;;;;21.97;47.75;100083.45;2293033;76;50095;-78
2024/04/15 11:38:26;;;;;;;10.88;1.90;;;;;;;21.99;47.78;100088.61;2267662;78;50324;-78
2024/04/15 11:41:28;;;;;;;12.70;2.45;;;;;;;22.00;47.69;100082.19;2279519;78;51501;-78
2024/04/15 11:44:30;;;;;;;13.80;2.50;;;;;;;22.01;47.56;100073.88;2279755;78;50359;-78
2024/04/15 11:47:33;;;;;;;17.73;2.72;;;;;;;21.99;47.57;100063.02;2279301;76;50375;-78
2024/04/15 11:50:35;;;;;;;10.35;2.05;;;;;;;22.01;47.49;100064.97;2241225;78;51346;-78
2024/04/15 11:53:37;;;;;;;13.78;2.12;;;;;;;22.00;47.51;100059.30;2279125;78;50378;-78
2024/04/15 11:56:39;;;;;;;19.82;2.62;;;;;;;21.98;47.60;100049.25;2267103;77;50739;-76
2024/04/15 11:59:42;;;;;;;13.78;2.02;;;;;;;21.96;47.58;100040.87;2267651;78;52742;-77
2024/04/15 12:02:46;;;;;;;13.65;2.67;;;;;;;21.99;47.54;100033.37;2279350;78;51421;-77
2024/04/15 12:05:49;;;;;;;12.55;2.15;;;;;;;22.01;47.52;100025.91;2279478;76;51624;-77
2024/04/15 12:08:52;;;;;;;18.98;1.92;;;;;;;22.02;47.52;100010.06;2267566;78;50692;-78
2024/04/15 12:11:54;;;;;;;13.55;2.50;;;;;;;22.01;47.58;99994.92;2267606;78;50761;-77
2024/04/15 12:14:57;;;;;;;17.30;2.30;;;;;;;22.01;47.77;99989.54;2242874;76;51437;-77
2024/04/15 12:18:00;;;;;;;16.62;2.45;;;;;;;22.04;47.71;99964.84;2279487;78;50274;-77
2024/04/15 12:21:02;;;;;;;13.60;2.00;;;;;;;22.04;47.75;99959.45;2281797;76;50267;-78
2024/04/15 12:24:05;;;;;;;17.65;2.60;;;;;;;22.02;47.82;99950.80;2257425;77;51414;-78
2024/04/15 12:27:07;;;;;;;26.45;2.37;;;;;;;22.02;47.94;99948.11;2301822;76;50432;-77
2024/04/15 12:30:09;;;;;;;20.23;2.50;;;;;;;22.05;47.88;99923.41;2302147;77;51474;-77
2024/04/15 12:33:12;;;;;;;15.18;2.05;;;;;;;22.04;47.76;99926.63;2301909;77;50732;-76
2024/04/15 12:36:14;;;;;;;13.80;2.20;;;;;;;22.04;47.89;99909.62;2282460;77;51494;-77
2024/04/15 12:39:16;;;;;;;17.37;3.15;;;;;;;22.02;47.90;99894.23;2282422;77;50758;-77
2024/04/15 12:42:19;;;;;;;17.27;2.72;;;;;;;22.03;48.42;99895.86;2301928;76;50364;-78
2024/04/15 12:45:21;;;;;;;25.40;2.70;;;;;;;22.02;48.22;99903.66;2301733;76;50345;-78
2024/04/15 12:48:23;;;;;;;23.50;3.00;;;;;;;21.98;46.55;99899.75;2312048;76;51789;-78
2024/04/15 12:51:25;;;;;;;10.43;2.60;;;;;;;21.95;46.97;99885.67;2341136;76;50256;-78
2024/04/15 12:54:27;;;;;;;14.78;2.42;;;;;;;21.92;46.98;99888.82;2341142;76;50789;-78
2024/04/15 12:57:30;;;;;;;14.98;2.10;;;;;;;21.92;46.81;99882.62;2320127;75;51471;-76
2024/04/15 13:00:32;;;;;;;11.78;2.47;;;;;;;21.90;46.76;99854.55;2345735;75;50709;-77
2024/04/15 13:03:34;;;;;;;22.00;3.20;;;;;;;21.93;47.06;99844.66;2290082;75;49544;-78
2024/04/15 13:06:36;;;;;;;11.57;2.27;;;;;;;21.91;47.23;99838.70;2315812;75;50364;-76
2024/04/15 13:09:39;;;;;;;15.45;3.27;;;;;;;21.94;47.30;99830.17;2345898;75;50344;-75
2024/04/15 13:12:41;;;;;;;10.53;1.92;;;;;;;21.93;47.16;99823.12;2327867;75;51809;-76
2024/04/15 13:15:43;;;;;;;11.73;2.22;;;;;;;21.94;47.05;99814.01;2341219;74;51543;-76
2024/04/15 13:18:45;;;;;;;14.45;2.30;;;;;;;21.93;46.97;99808.30;2299364;77;51584;-76
2024/04/15 13:21:47;;;;;;;12.65;1.95;;;;;;;21.94;47.14;99793.80;2327622;76;51452;-76
2024/04/15 13:24:50;;;;;;;13.95;2.17;;;;;;;21.94;47.03;99783.03;2317869;75;50325;-76
2024/04/15 13:27:52;;;;;;;14.07;2.25;;;;;;;21.90;47.10;99772.41;2270214;76;51090;-76
2024/04/15 13:30:54;;;;;;;11.83;2.52;;;;;;;21.93;47.07;99768.43;2316325;76;50704;-76
2024/04/15 13:33:56;;;;;;;10.93;2.27;;;;;;;21.92;47.02;99751.45;2316244;76;51498;-75
2024/04/15 13:36:58;;;;;;;9.33;2.33;;;;;;;21.90;47.07;99745.47;2303669;76;51534;-77
2024/04/15 13:40:00;;;;;;;10.38;2.42;;;;;;;21.89;47.03;99743.84;2316411;76;51477;-76
2024/04/15 13:43:03;;;;;;;9.03;2.33;;;;;;;21.89;47.03;99742.48;2316835;76;51491;-76
2024/04/15 13:46:05;;;;;;;10.03;1.87;;;;;;;21.90;46.92;99737.39;2279842;76;50687;-76
2024/04/15 13:49:08;;;;;;;8.95;2.27;;;;;;;21.87;47.04;99728.42;2305720;76;52541;-78
2024/04/15 13:52:10;;;;;;;9.38;1.92;;;;;;;21.88;47.04;99725.20;2307340;76;49441;-76
2024/04/15 13:55:13;;;;;;;11.55;2.60;;;;;;;21.89;46.96;99704.78;2318789;75;50695;-79
2024/04/15 13:58:16;;;;;;;14.55;2.12;;;;;;;21.88;46.97;99707.69;2333553;75;50710;-79
2024/04/15 14:01:18;;;;;;;8.48;1.62;;;;;;;21.89;46.83;99699.92;2307013;76;51177;-78
2024/04/15 14:04:21;;;;;;;7.12;2.20;;;;;;;21.92;46.50;99688.16;2319429;76;51563;-78
2024/04/15 14:07:23;;;;;;;8.23;1.77;;;;;;;21.92;46.79;99686.00;2318803;75;50825;-77